createdAt,value
2019-01-10T00:00:53.562Z,-0.02
2019-01-10T00:03:22.634Z,0.01
2019-01-10T00:05:51.781Z,0.07
2019-01-10T00:08:20.802Z,0.00
2019-01-10T00:10:49.894Z,0.00
2019-01-10T00:13:18.971Z,0.03
2019-01-10T00:15:48.056Z,0.05
2019-01-10T00:18:17.127Z,0.00
2019-01-10T00:20:46.204Z,-0.09
2019-01-10T00:23:15.326Z,-0.03
2019-01-10T00:25:44.403Z,-0.09
2019-01-10T00:28:13.515Z,-0.05
2019-01-10T00:30:42.595Z,-0.04
2019-01-10T00:33:11.687Z,-0.11
2019-01-10T00:35:40.755Z,0.08
2019-01-10T00:38:09.851Z,-0.02
2019-01-10T00:40:38.928Z,0.02
2019-01-10T00:43:08.029Z,-0.07
2019-01-10T00:45:37.115Z,-0.12
2019-01-10T00:48:06.223Z,-0.02
2019-01-10T00:50:35.295Z,0.06
2019-01-10T00:53:04.390Z,0.06
2019-01-10T00:55:33.468Z,-0.05
2019-01-10T00:58:02.564Z,-0.16
2019-01-10T01:00:31.635Z,-0.16
2019-01-10T01:03:00.742Z,-0.06
2019-01-10T01:05:29.818Z,-0.10
2019-01-10T01:07:58.919Z,-0.15
2019-01-10T01:10:28.674Z,-0.19
2019-01-10T01:12:58.923Z,-0.15
2019-01-10T01:15:28.137Z,-0.18
2019-01-10T01:17:57.221Z,-0.13
2019-01-10T01:20:26.394Z,-0.11
2019-01-10T01:22:55.493Z,-0.23
2019-01-10T01:25:24.604Z,-0.28
2019-01-10T01:27:53.701Z,-0.36
2019-01-10T01:30:24.286Z,-0.32
2019-01-10T01:32:53.386Z,-0.29
2019-01-10T01:35:22.452Z,-0.42
2019-01-10T01:37:51.547Z,-0.29
2019-01-10T01:40:21.128Z,-0.28
2019-01-10T01:42:50.226Z,-0.24
2019-01-10T01:45:19.939Z,-0.24
2019-01-10T01:47:49.155Z,-0.14
2019-01-10T01:50:20.143Z,-0.25
2019-01-10T01:52:49.233Z,-0.06
2019-01-10T01:55:18.310Z,-0.16
2019-01-10T01:57:47.654Z,-0.05
2019-01-10T02:00:19.468Z,-0.22
2019-01-10T02:02:48.576Z,-0.16
2019-01-10T02:05:17.951Z,-0.13
2019-01-10T02:07:47.159Z,-0.26
2019-01-10T02:10:18.647Z,-0.28
2019-01-10T02:12:47.743Z,-0.28
2019-01-10T02:15:16.920Z,-0.22
2019-01-10T02:17:49.126Z,-0.05
2019-01-10T02:20:16.909Z,-0.20
2019-01-10T02:22:46.091Z,-0.29
2019-01-10T02:25:16.022Z,-0.15
2019-01-10T02:27:45.151Z,-0.15
2019-01-10T02:30:17.172Z,-0.22
2019-01-10T02:32:46.247Z,-0.34
2019-01-10T02:35:15.831Z,-0.28
2019-01-10T02:37:44.922Z,-0.31
2019-01-10T02:40:14.319Z,-0.18
2019-01-10T02:42:43.838Z,-0.24
2019-01-10T02:45:13.734Z,-0.25
2019-01-10T02:47:42.817Z,-0.27
2019-01-10T02:50:15.371Z,-0.25
2019-01-10T02:52:44.457Z,-0.37
2019-01-10T02:55:13.760Z,-0.30
2019-01-10T02:57:42.823Z,-0.24
2019-01-10T03:00:15.144Z,-0.26
2019-01-10T03:02:44.234Z,-0.36
2019-01-10T03:05:13.387Z,-0.22
2019-01-10T03:07:42.398Z,-0.17
2019-01-10T03:10:12.510Z,-0.25
2019-01-10T03:12:41.583Z,-0.23
2019-01-10T03:15:10.891Z,-0.30
2019-01-10T03:17:39.968Z,-0.38
2019-01-10T03:20:12.015Z,-0.26
2019-01-10T03:22:41.070Z,-0.25
2019-01-10T03:25:10.194Z,-0.38
2019-01-10T03:27:39.265Z,-0.42
2019-01-10T03:30:09.651Z,-0.50
2019-01-10T03:32:39.038Z,-0.33
2019-01-10T03:35:09.382Z,-0.48
2019-01-10T03:37:38.456Z,-0.47
2019-01-10T03:40:10.705Z,-0.34
2019-01-10T03:42:39.775Z,-0.34
2019-01-10T03:45:11.247Z,-0.40
2019-01-10T03:47:40.330Z,-0.25
2019-01-10T03:50:10.827Z,-0.28
2019-01-10T03:52:39.898Z,-0.34
2019-01-10T03:55:08.989Z,-0.42
2019-01-10T03:57:38.091Z,-0.40
2019-01-10T04:00:15.822Z,-0.46
2019-01-10T04:02:44.926Z,-0.54
2019-01-10T04:05:14.015Z,-0.53
2019-01-10T04:07:43.119Z,-0.38
2019-01-10T04:10:12.760Z,-0.57
2019-01-10T04:12:41.843Z,-0.76
2019-01-10T04:15:11.507Z,-0.75
2019-01-10T04:17:40.629Z,-0.75
2019-01-10T04:20:10.682Z,-0.90
2019-01-10T04:22:39.774Z,-1.04
2019-01-10T04:25:09.066Z,-0.89
2019-01-10T04:27:38.167Z,-0.90
2019-01-10T04:30:09.153Z,-0.78
2019-01-10T04:32:38.218Z,-0.70
2019-01-10T04:35:07.700Z,-0.67
2019-01-10T04:37:36.797Z,-0.74
2019-01-10T04:40:07.421Z,-0.82
2019-01-10T04:42:36.514Z,-0.82
2019-01-10T04:45:06.358Z,-0.91
2019-01-10T04:47:35.454Z,-0.73
2019-01-10T04:50:05.146Z,-0.74
2019-01-10T04:52:34.250Z,-0.56
2019-01-10T04:55:03.333Z,-0.71
2019-01-10T04:57:32.421Z,-0.68
2019-01-10T05:00:01.643Z,-0.70
2019-01-10T05:02:30.778Z,-0.59
2019-01-10T05:05:01.830Z,-0.48
2019-01-10T05:07:30.669Z,-0.62
2019-01-10T05:09:59.739Z,-0.55
2019-01-10T05:12:28.840Z,-0.58
2019-01-10T05:14:57.916Z,-0.63
2019-01-10T05:17:27.010Z,-0.75
2019-01-10T05:19:56.088Z,-0.90
2019-01-10T05:22:25.198Z,-0.94
2019-01-10T05:24:54.416Z,-0.83
2019-01-10T05:27:23.515Z,-0.71
2019-01-10T05:29:52.644Z,-0.75
2019-01-10T05:32:21.726Z,-0.79
2019-01-10T05:34:50.829Z,-0.78
2019-01-10T05:37:19.898Z,-0.73
2019-01-10T05:39:48.995Z,-0.77
2019-01-10T05:42:18.144Z,-0.78
2019-01-10T05:44:47.250Z,-0.73
2019-01-10T05:47:16.335Z,-0.81
2019-01-10T05:49:45.447Z,-0.71
2019-01-10T05:52:14.534Z,-0.82
2019-01-10T05:54:43.623Z,-0.94
2019-01-10T05:57:12.703Z,-0.90
2019-01-10T05:59:41.806Z,-0.87
2019-01-10T06:02:10.893Z,-0.71
2019-01-10T06:04:40.000Z,-0.80
2019-01-10T06:07:09.088Z,-0.82
2019-01-10T06:09:38.197Z,-0.78
2019-01-10T06:12:07.590Z,-0.84
2019-01-10T06:14:36.700Z,-0.79
2019-01-10T06:17:05.779Z,-0.94
2019-01-10T06:19:34.884Z,-0.84
2019-01-10T06:22:03.972Z,-0.92
2019-01-10T06:24:33.103Z,-1.02
2019-01-10T06:27:02.185Z,-0.97
2019-01-10T06:29:31.281Z,-1.11
2019-01-10T06:32:00.370Z,-1.06
2019-01-10T06:34:29.473Z,-1.05
2019-01-10T06:36:58.555Z,-1.11
2019-01-10T06:39:27.655Z,-1.06
2019-01-10T06:41:56.740Z,-0.98
2019-01-10T06:44:25.833Z,-0.95
2019-01-10T06:46:54.913Z,-0.96
2019-01-10T06:49:24.017Z,-0.99
2019-01-10T06:51:53.100Z,-1.00
2019-01-10T06:54:22.198Z,-1.01
2019-01-10T06:56:51.279Z,-1.01
2019-01-10T06:59:20.384Z,-0.92
2019-01-10T07:01:49.473Z,-1.01
2019-01-10T07:04:18.583Z,-1.06
2019-01-10T07:06:47.665Z,-1.07
2019-01-10T07:09:16.748Z,-1.01
2019-01-10T07:11:45.851Z,-1.07
2019-01-10T07:14:14.923Z,-1.16
2019-01-10T07:16:53.316Z,-1.19
2019-01-10T07:19:17.916Z,-0.98
2019-01-10T07:21:56.587Z,-1.09
2019-01-10T07:24:26.985Z,-1.07
2019-01-10T07:26:59.430Z,-0.98
2019-01-10T07:29:28.571Z,-0.87
2019-01-10T07:32:00.976Z,-0.82
2019-01-10T07:34:30.052Z,-0.77
2019-01-10T07:36:59.213Z,-0.82
2019-01-10T07:39:28.229Z,-0.63
2019-01-10T07:41:57.332Z,-0.65
2019-01-10T07:44:26.728Z,-0.73
2019-01-10T07:46:55.851Z,-0.62
2019-01-10T07:49:24.957Z,-0.64
2019-01-10T07:51:54.074Z,-0.63
2019-01-10T07:54:23.148Z,-0.42
2019-01-10T07:56:52.252Z,-0.45
2019-01-10T07:59:21.334Z,-0.23
2019-01-10T08:01:50.444Z,-0.45
2019-01-10T08:04:19.522Z,-0.27
2019-01-10T08:06:48.747Z,-0.18
2019-01-10T08:09:17.815Z,-0.09
2019-01-10T08:11:46.912Z,0.06
2019-01-10T08:14:15.981Z,-0.01
2019-01-10T08:16:45.092Z,-0.10
2019-01-10T08:19:14.164Z,-0.21
2019-01-10T08:21:43.284Z,-0.21
2019-01-10T08:24:12.388Z,-0.23
2019-01-10T08:26:41.491Z,-0.10
2019-01-10T08:29:10.567Z,-0.14
2019-01-10T08:31:39.748Z,-0.32
2019-01-10T08:34:08.825Z,-0.27
2019-01-10T08:36:37.924Z,-0.02
2019-01-10T08:39:08.577Z,0.00
2019-01-10T08:41:37.686Z,0.08
2019-01-10T08:44:06.758Z,-0.12
2019-01-10T08:46:35.841Z,0.05
2019-01-10T08:49:05.046Z,0.03
2019-01-10T08:51:34.126Z,-0.19
2019-01-10T08:54:03.228Z,-0.20
2019-01-10T08:56:32.316Z,-0.02
2019-01-10T08:59:01.425Z,-0.19
2019-01-10T09:01:30.506Z,-0.11
2019-01-10T09:03:59.595Z,0.10
2019-01-10T09:06:28.674Z,0.28
2019-01-10T09:08:57.778Z,0.21
2019-01-10T09:11:26.862Z,0.09
2019-01-10T09:13:55.957Z,0.04
2019-01-10T09:16:25.039Z,0.19
2019-01-10T09:18:54.241Z,0.47
2019-01-10T09:21:23.580Z,0.33
2019-01-10T09:23:52.714Z,0.46
2019-01-10T09:26:21.795Z,0.49
2019-01-10T09:28:50.899Z,0.54
2019-01-10T09:31:19.975Z,0.67
2019-01-10T09:33:49.079Z,0.57
2019-01-10T09:36:18.159Z,0.66
2019-01-10T09:38:47.256Z,0.62
2019-01-10T09:41:16.328Z,0.54
2019-01-10T09:43:45.419Z,0.90
2019-01-10T09:46:14.495Z,0.62
2019-01-10T09:48:43.590Z,0.69
2019-01-10T09:51:12.672Z,0.64
2019-01-10T09:53:41.774Z,0.40
2019-01-10T09:56:10.955Z,0.48
2019-01-10T09:58:40.059Z,0.80
2019-01-10T10:01:09.135Z,0.95
2019-01-10T10:03:38.228Z,0.84
2019-01-10T10:06:08.097Z,0.91
2019-01-10T10:08:37.293Z,1.28
2019-01-10T10:11:06.368Z,1.44
2019-01-10T10:13:35.455Z,1.31
2019-01-10T10:16:04.631Z,1.74
2019-01-10T10:18:33.707Z,1.55
2019-01-10T10:21:02.833Z,1.55
2019-01-10T10:23:31.929Z,1.57
2019-01-10T10:26:01.034Z,1.32
2019-01-10T10:28:30.107Z,1.56
2019-01-10T10:30:59.204Z,1.41
2019-01-10T10:33:28.278Z,1.25
2019-01-10T10:35:57.381Z,1.43
2019-01-10T10:38:26.452Z,1.01
2019-01-10T10:40:55.549Z,0.99
2019-01-10T10:43:24.627Z,0.97
2019-01-10T10:46:01.555Z,1.04
2019-01-10T10:48:24.515Z,1.02
2019-01-10T10:50:53.610Z,1.05
2019-01-10T10:53:22.688Z,1.04
2019-01-10T10:55:51.787Z,0.96
2019-01-10T10:58:20.866Z,0.96
2019-01-10T11:00:49.997Z,0.99
2019-01-10T11:03:19.083Z,0.80
2019-01-10T11:05:48.248Z,0.72
2019-01-10T11:08:17.328Z,0.82
2019-01-10T11:10:46.431Z,0.54
2019-01-10T11:13:15.506Z,0.51
2019-01-10T11:15:44.578Z,0.69
2019-01-10T11:18:13.676Z,0.65
2019-01-10T11:20:42.781Z,0.82
2019-01-10T11:23:11.891Z,0.85
2019-01-10T11:25:40.978Z,0.82
2019-01-10T11:28:10.076Z,0.95
2019-01-10T11:30:39.158Z,1.14
2019-01-10T11:33:08.368Z,1.24
2019-01-10T11:35:37.452Z,1.04
2019-01-10T11:38:06.556Z,1.00
2019-01-10T11:40:35.639Z,1.05
2019-01-10T11:43:04.741Z,1.06
2019-01-10T11:45:33.820Z,1.40
2019-01-10T11:48:02.920Z,1.03
2019-01-10T11:50:32.004Z,1.43
2019-01-10T11:53:01.120Z,1.53
2019-01-10T11:55:30.194Z,1.47
2019-01-10T11:57:59.296Z,1.92
2019-01-10T12:00:30.353Z,2.12
2019-01-10T12:03:00.499Z,1.55
2019-01-10T12:05:29.579Z,1.32
2019-01-10T12:07:58.666Z,1.48
2019-01-10T12:10:27.747Z,1.65
2019-01-10T12:12:56.850Z,2.30
2019-01-10T12:15:25.927Z,2.54
2019-01-10T12:17:55.034Z,2.35
2019-01-10T12:20:24.111Z,2.81
2019-01-10T12:22:53.202Z,3.38
2019-01-10T12:25:22.331Z,3.55
2019-01-10T12:27:51.410Z,3.59
2019-01-10T12:30:25.345Z,3.06
2019-01-10T12:32:54.440Z,2.40
2019-01-10T12:35:25.304Z,2.36
2019-01-10T12:37:54.510Z,2.39
2019-01-10T12:40:23.576Z,1.79
2019-01-10T12:42:52.655Z,1.63
2019-01-10T12:45:21.883Z,1.88
2019-01-10T12:47:50.963Z,2.16
2019-01-10T12:50:28.381Z,2.05
2019-01-10T12:52:57.486Z,2.30
2019-01-10T12:55:26.589Z,2.40
2019-01-10T12:57:55.734Z,2.32
2019-01-10T13:00:25.071Z,1.93
2019-01-10T13:02:54.902Z,2.32
2019-01-10T13:05:24.038Z,2.29
2019-01-10T13:07:53.320Z,1.94
2019-01-10T13:10:22.415Z,1.61
2019-01-10T13:12:51.500Z,1.67
2019-01-10T13:15:22.754Z,1.51
2019-01-10T13:17:51.930Z,1.51
2019-01-10T13:20:21.007Z,1.29
2019-01-10T13:22:50.106Z,1.22
2019-01-10T13:25:19.921Z,1.01
2019-01-10T13:27:49.481Z,0.99
2019-01-10T13:30:23.237Z,0.95
2019-01-10T13:32:53.047Z,0.95
2019-01-10T13:35:22.118Z,0.85
2019-01-10T13:37:51.216Z,1.00
2019-01-10T13:40:20.393Z,1.09
2019-01-10T13:42:49.487Z,0.85
2019-01-10T13:45:19.079Z,1.04
2019-01-10T13:47:49.382Z,0.85
2019-01-10T13:50:20.802Z,0.93
2019-01-10T13:52:49.902Z,0.80
2019-01-10T13:55:19.279Z,0.86
2019-01-10T13:57:48.375Z,0.97
2019-01-10T14:00:20.193Z,1.03
2019-01-10T14:02:49.292Z,0.95
2019-01-10T14:05:18.415Z,1.06
2019-01-10T14:07:47.489Z,1.11
2019-01-10T14:10:16.832Z,1.22
2019-01-10T14:12:46.026Z,0.98
2019-01-10T14:15:21.513Z,0.91
2019-01-10T14:17:50.711Z,1.01
2019-01-10T14:20:19.807Z,0.86
2019-01-10T14:22:49.185Z,0.79
2019-01-10T14:25:18.285Z,0.73
2019-01-10T14:27:47.456Z,0.78
2019-01-10T14:30:22.238Z,0.88
2019-01-10T14:32:51.443Z,0.74
2019-01-10T14:35:20.726Z,0.75
2019-01-10T14:37:50.167Z,0.77
2019-01-10T14:40:19.413Z,0.76
2019-01-10T14:42:48.536Z,1.04
2019-01-10T14:45:17.708Z,0.90
2019-01-10T14:47:46.843Z,0.81
2019-01-10T14:50:18.787Z,0.79
2019-01-10T14:52:48.014Z,0.64
2019-01-10T14:55:17.186Z,0.86
2019-01-10T14:57:46.501Z,0.67
2019-01-10T15:00:19.235Z,0.66
2019-01-10T15:02:48.949Z,0.52
2019-01-10T15:05:20.452Z,0.31
2019-01-10T15:07:52.256Z,0.51
2019-01-10T15:10:21.369Z,0.28
2019-01-10T15:12:50.492Z,0.28
2019-01-10T15:15:21.231Z,0.22
2019-01-10T15:17:50.331Z,0.39
2019-01-10T15:20:21.988Z,0.26
2019-01-10T15:22:51.197Z,0.32
2019-01-10T15:25:20.295Z,0.23
2019-01-10T15:27:49.394Z,0.19
2019-01-10T15:30:20.448Z,0.18
2019-01-10T15:32:49.527Z,0.13
2019-01-10T15:35:18.635Z,0.10
2019-01-10T15:37:47.718Z,0.07
2019-01-10T15:40:22.592Z,0.10
2019-01-10T15:42:51.677Z,0.07
2019-01-10T15:45:20.974Z,0.01
2019-01-10T15:47:50.092Z,0.13
2019-01-10T15:50:19.380Z,0.07
2019-01-10T15:52:48.476Z,-0.06
2019-01-10T15:55:18.363Z,-0.13
2019-01-10T15:57:47.445Z,-0.10
2019-01-10T16:00:18.710Z,0.00
2019-01-10T16:02:47.924Z,-0.06
2019-01-10T16:05:17.039Z,-0.04
2019-01-10T16:07:46.127Z,-0.06
2019-01-10T16:10:16.504Z,-0.09
2019-01-10T16:12:45.605Z,-0.11
2019-01-10T16:15:17.025Z,-0.14
2019-01-10T16:17:46.099Z,-0.04
2019-01-10T16:20:15.253Z,-0.36
2019-01-10T16:22:44.728Z,-0.59
2019-01-10T16:25:14.182Z,-0.53
2019-01-10T16:27:43.272Z,-0.64
2019-01-10T16:30:17.951Z,-0.56
2019-01-10T16:32:47.041Z,-0.75
2019-01-10T16:35:16.170Z,-0.72
2019-01-10T16:37:45.263Z,-0.80
2019-01-10T16:40:14.882Z,-0.73
2019-01-10T16:42:43.982Z,-0.84
2019-01-10T16:45:16.162Z,-0.71
2019-01-10T16:47:45.240Z,-0.67
2019-01-10T16:50:14.547Z,-0.77
2019-01-10T16:52:43.639Z,-0.81
2019-01-10T16:55:12.970Z,-0.93
2019-01-10T16:57:42.137Z,-0.94
2019-01-10T17:00:16.395Z,-0.93
2019-01-10T17:02:45.492Z,-0.87
2019-01-10T17:05:14.679Z,-0.84
2019-01-10T17:07:43.779Z,-0.73
2019-01-10T17:10:13.095Z,-0.67
2019-01-10T17:12:42.185Z,-0.64
2019-01-10T17:15:11.422Z,-0.60
2019-01-10T17:17:40.486Z,-0.56
2019-01-10T17:20:11.737Z,-0.53
2019-01-10T17:22:40.824Z,-0.54
2019-01-10T17:25:10.206Z,-0.51
2019-01-10T17:27:39.304Z,-0.56
2019-01-10T17:30:11.079Z,-0.57
2019-01-10T17:32:40.169Z,-0.61
2019-01-10T17:35:12.477Z,-0.65
2019-01-10T17:37:41.566Z,-0.53
2019-01-10T17:40:13.010Z,-0.51
2019-01-10T17:42:42.281Z,-0.75
2019-01-10T17:45:13.850Z,-0.68
2019-01-10T17:47:45.615Z,-0.74
2019-01-10T17:50:15.979Z,-0.66
2019-01-10T17:52:45.180Z,-0.71
2019-01-10T17:55:14.485Z,-0.68
2019-01-10T17:57:44.215Z,-0.68
2019-01-10T18:00:15.906Z,-0.62
2019-01-10T18:02:45.384Z,-0.65
2019-01-10T18:05:15.041Z,-0.56
2019-01-10T18:07:44.373Z,-0.57
2019-01-10T18:10:15.882Z,-0.51
2019-01-10T18:12:45.118Z,-0.57
2019-01-10T18:15:15.956Z,-0.61
2019-01-10T18:17:50.214Z,-0.68
2019-01-10T18:20:18.837Z,-0.61
2019-01-10T18:22:47.951Z,-0.66
2019-01-10T18:25:18.570Z,-0.64
2019-01-10T18:27:47.685Z,-0.70
2019-01-10T18:30:18.995Z,-0.69
2019-01-10T18:32:48.108Z,-0.65
2019-01-10T18:35:17.521Z,-0.55
2019-01-10T18:37:47.392Z,-0.56
2019-01-10T18:40:16.968Z,-0.35
2019-01-10T18:42:46.100Z,-0.54
2019-01-10T18:45:18.481Z,-0.49
2019-01-10T18:47:47.672Z,-0.62
2019-01-10T18:50:18.787Z,-0.61
2019-01-10T18:52:47.926Z,-0.59
2019-01-10T18:55:17.030Z,-0.60
2019-01-10T18:57:46.153Z,-0.34
2019-01-10T19:00:20.734Z,-0.60
2019-01-10T19:02:49.853Z,-0.60
2019-01-10T19:05:18.949Z,-0.60
2019-01-10T19:07:48.082Z,-0.47
2019-01-10T19:10:18.312Z,-0.66
2019-01-10T19:12:47.433Z,-0.69
2019-01-10T19:15:16.524Z,-0.68
2019-01-10T19:17:45.646Z,-0.36
2019-01-10T19:20:17.193Z,-0.49
2019-01-10T19:22:46.314Z,-0.62
2019-01-10T19:25:15.977Z,-0.42
2019-01-10T19:27:45.091Z,-0.66
2019-01-10T19:30:19.850Z,-0.72
2019-01-10T19:32:48.982Z,-0.60
2019-01-10T19:35:18.080Z,-0.50
2019-01-10T19:37:47.421Z,-0.55
2019-01-10T19:40:18.009Z,-0.59
2019-01-10T19:42:47.124Z,-0.62
2019-01-10T19:45:17.501Z,-0.64
2019-01-10T19:47:46.738Z,-0.64
2019-01-10T19:50:18.588Z,-0.67
2019-01-10T19:52:47.976Z,-0.64
2019-01-10T19:55:17.630Z,-0.63
2019-01-10T19:57:47.493Z,-0.59
2019-01-10T20:00:22.633Z,-0.61
2019-01-10T20:02:51.727Z,-0.71
2019-01-10T20:05:20.852Z,-0.64
2019-01-10T20:07:49.941Z,-0.66
2019-01-10T20:10:19.068Z,-0.68
2019-01-10T20:12:48.169Z,-0.51
2019-01-10T20:15:17.286Z,-0.55
2019-01-10T20:17:46.406Z,-0.60
2019-01-10T20:20:19.032Z,-0.63
2019-01-10T20:22:49.019Z,-0.65
2019-01-10T20:25:18.165Z,-0.73
2019-01-10T20:27:47.266Z,-0.74
2019-01-10T20:30:16.692Z,-0.73
2019-01-10T20:32:45.810Z,-0.72
2019-01-10T20:35:15.304Z,-0.67
2019-01-10T20:37:44.419Z,-0.70
2019-01-10T20:40:13.970Z,-0.74
2019-01-10T20:42:43.153Z,-0.75
2019-01-10T20:45:12.603Z,-0.81
2019-01-10T20:47:41.702Z,-0.80
2019-01-10T20:50:10.924Z,-0.78
2019-01-10T20:52:40.060Z,-0.70
2019-01-10T20:55:10.537Z,-0.77
2019-01-10T20:57:39.640Z,-0.80
2019-01-10T21:00:12.873Z,-0.83
2019-01-10T21:02:41.965Z,-0.76
2019-01-10T21:05:11.853Z,-0.71
2019-01-10T21:07:41.045Z,-0.72
2019-01-10T21:10:12.385Z,-0.71
2019-01-10T21:12:41.521Z,-0.71
2019-01-10T21:15:13.434Z,-0.66
2019-01-10T21:17:42.608Z,-0.64
2019-01-10T21:20:11.852Z,-0.64
2019-01-10T21:22:41.008Z,-0.63
2019-01-10T21:25:10.384Z,-0.61
2019-01-10T21:27:40.222Z,-0.57
2019-01-10T21:30:11.469Z,-0.50
2019-01-10T21:32:41.006Z,-0.59
2019-01-10T21:35:10.190Z,-0.68
2019-01-10T21:37:39.306Z,-0.70
2019-01-10T21:40:11.101Z,-0.57
2019-01-10T21:42:40.232Z,-0.60
2019-01-10T21:45:12.140Z,-0.63
2019-01-10T21:47:41.280Z,-0.71
2019-01-10T21:50:14.036Z,-0.74
2019-01-10T21:52:43.148Z,-0.75
2019-01-10T21:55:12.341Z,-0.68
2019-01-10T21:57:41.456Z,-0.66
2019-01-10T22:00:15.261Z,-0.65
2019-01-10T22:02:44.386Z,-0.60
2019-01-10T22:05:13.473Z,-0.78
2019-01-10T22:07:42.598Z,-0.79
2019-01-10T22:10:12.038Z,-0.80
2019-01-10T22:12:41.200Z,-0.78
2019-01-10T22:15:11.178Z,-0.76
2019-01-10T22:17:40.288Z,-0.80
2019-01-10T22:20:11.237Z,-0.79
2019-01-10T22:22:40.354Z,-0.77
2019-01-10T22:25:09.458Z,-0.73
2019-01-10T22:27:38.577Z,-0.73
2019-01-10T22:30:10.452Z,-0.67
2019-01-10T22:32:39.635Z,-0.67
2019-01-10T22:35:10.512Z,-0.63
2019-01-10T22:37:39.624Z,-0.58
2019-01-10T22:40:10.805Z,-0.64
2019-01-10T22:42:41.311Z,-0.70
2019-01-10T22:45:10.789Z,-0.63
2019-01-10T22:47:39.907Z,-0.65
2019-01-10T22:50:10.441Z,-0.58
2019-01-10T22:52:39.539Z,-0.42
2019-01-10T22:55:09.627Z,-0.39
2019-01-10T22:57:38.719Z,-0.37
2019-01-10T23:00:54.014Z,-0.55
2019-01-10T23:03:23.123Z,-0.69
2019-01-10T23:05:52.213Z,-0.66
2019-01-10T23:08:21.332Z,-0.60
2019-01-10T23:10:50.427Z,-0.62
2019-01-10T23:13:19.645Z,-0.64
2019-01-10T23:15:49.820Z,-0.78
2019-01-10T23:18:19.438Z,-0.83
2019-01-10T23:20:59.574Z,-0.78
2019-01-10T23:23:28.688Z,-0.80
2019-01-10T23:25:57.797Z,-0.87
2019-01-10T23:28:26.893Z,-0.93
2019-01-10T23:30:57.932Z,-0.90
2019-01-10T23:33:27.165Z,-1.03
2019-01-10T23:36:01.402Z,-1.03
2019-01-10T23:38:31.270Z,-1.04
2019-01-10T23:41:01.086Z,-1.01
2019-01-10T23:43:30.175Z,-0.97
2019-01-10T23:45:59.395Z,-0.92
2019-01-10T23:48:28.485Z,-0.60
2019-01-10T23:50:57.600Z,-0.87
2019-01-10T23:53:26.696Z,-0.98
2019-01-10T23:55:55.808Z,-0.95
2019-01-10T23:58:24.915Z,-1.00
